Time;durP1;ratioP1;P1;durP2;ratioP2;P2;SDS_P1;SDS_P2;PMS_P1;PMS_P2;Temp;Humidity;BMP_temperature;BMP_pressure;BME280_temperature;BME280_humidity;BME280_pressure;Samples;Min_cycle;Max_cycle;Signal;HPM_P1;HPM_P2
2022/10/16 00:01:06;;;;;;;6.40;2.10;;;;;;;;;;5015357;28;20267;-79
2022/10/16 00:03:34;;;;;;;3.97;2.40;;;;;;;;;;5015526;28;20717;-79
2022/10/16 00:06:03;;;;;;;2.87;2.57;;;;;;;;;;5014955;28;20259;-79
2022/10/16 00:08:32;;;;;;;2.40;2.20;;;;;;;;;;5015375;28;20243;-79
2022/10/16 00:11:01;;;;;;;2.73;2.53;;;;;;;;;;5014636;28;20247;-78
2022/10/16 00:13:30;;;;;;;3.00;2.70;;;;;;;;;;5015453;28;20671;-78
2022/10/16 00:15:59;;;;;;;3.87;2.87;;;;;;;;;;5014810;28;20638;-78
2022/10/16 00:18:29;;;;;;;3.63;2.80;;;;;;;;;;5015519;28;20300;-78
2022/10/16 00:21:03;;;;;;;3.70;2.90;;;;;;;;;;5015225;28;20267;-78
2022/10/16 00:23:32;;;;;;;4.47;2.83;;;;;;;;;;5015048;28;20197;-78
2022/10/16 00:26:01;;;;;;;5.93;3.20;;;;;;;;;;5015670;28;20736;-78
2022/10/16 00:28:30;;;;;;;4.20;2.90;;;;;;;;;;5025735;28;20247;-78
2022/10/16 00:30:58;;;;;;;3.43;2.90;;;;;;;;;;5014964;28;20227;-78
2022/10/16 00:33:27;;;;;;;6.80;2.90;;;;;;;;;;5014763;28;20656;-78
2022/10/16 00:35:59;;;;;;;3.73;2.87;;;;;;;;;;5014654;28;20204;-78
2022/10/16 00:38:27;;;;;;;4.50;2.90;;;;;;;;;;5014656;28;20247;-79
2022/10/16 00:40:56;;;;;;;5.80;3.10;;;;;;;;;;5013847;28;20256;-78
2022/10/16 00:43:35;;;;;;;5.30;3.23;;;;;;;;;;5014543;28;20239;-79
2022/10/16 00:46:05;;;;;;;3.40;3.10;;;;;;;;;;5015013;28;20234;-78
2022/10/16 00:48:33;;;;;;;4.57;2.93;;;;;;;;;;5014337;28;20208;-78
2022/10/16 00:51:03;;;;;;;5.37;3.30;;;;;;;;;;5014426;28;20745;-79
2022/10/16 00:53:32;;;;;;;4.67;3.20;;;;;;;;;;5013357;28;20247;-78
2022/10/16 00:56:00;;;;;;;4.07;3.30;;;;;;;;;;5014210;28;20225;-78
2022/10/16 00:58:29;;;;;;;4.50;3.20;;;;;;;;;;5013798;28;20266;-78
2022/10/16 01:00:57;;;;;;;6.13;3.80;;;;;;;;;;5014476;28;20307;-78
2022/10/16 01:03:28;;;;;;;6.27;3.43;;;;;;;;;;5013873;28;20209;-78
2022/10/16 01:06:01;;;;;;;5.50;3.60;;;;;;;;;;5013313;28;20741;-78
2022/10/16 01:08:35;;;;;;;5.73;4.10;;;;;;;;;;5014373;28;20250;-78
2022/10/16 01:11:08;;;;;;;5.70;3.80;;;;;;;;;;5014632;28;20283;-77
2022/10/16 01:13:40;;;;;;;6.33;3.93;;;;;;;;;;5013707;28;20677;-78
2022/10/16 01:16:13;;;;;;;5.73;4.37;;;;;;;;;;5014219;28;20231;-78
2022/10/16 01:18:45;;;;;;;7.27;3.70;;;;;;;;;;5014152;28;20204;-78
2022/10/16 01:21:16;;;;;;;6.27;3.90;;;;;;;;;;5014344;28;20204;-78
2022/10/16 01:23:50;;;;;;;6.07;4.17;;;;;;;;;;5014447;28;20234;-78
2022/10/16 01:26:26;;;;;;;4.17;3.57;;;;;;;;;;4994581;28;20229;-78
2022/10/16 01:28:57;;;;;;;6.07;4.10;;;;;;;;;;5005282;28;20232;-78
2022/10/16 01:31:34;;;;;;;5.67;4.17;;;;;;;;;;5013760;28;20193;-78
2022/10/16 01:34:05;;;;;;;6.30;4.27;;;;;;;;;;4994917;28;20193;-79
2022/10/16 01:36:37;;;;;;;7.43;4.10;;;;;;;;;;5005534;28;20650;-78
2022/10/16 01:39:06;;;;;;;4.77;3.93;;;;;;;;;;5013434;28;20239;-78
2022/10/16 01:41:36;;;;;;;5.27;4.10;;;;;;;;;;5013839;28;20252;-78
2022/10/16 01:44:08;;;;;;;4.10;3.67;;;;;;;;;;5013799;28;20300;-79
2022/10/16 01:46:38;;;;;;;4.53;3.90;;;;;;;;;;5013714;28;20731;-78
2022/10/16 01:49:07;;;;;;;5.30;3.80;;;;;;;;;;5013639;28;20266;-78
2022/10/16 01:51:36;;;;;;;5.27;3.70;;;;;;;;;;5017161;28;20291;-79
2022/10/16 01:54:06;;;;;;;5.70;4.00;;;;;;;;;;5025652;28;20720;-78
2022/10/16 01:56:35;;;;;;;7.13;4.30;;;;;;;;;;5013439;28;20236;-79
2022/10/16 01:59:07;;;;;;;6.00;4.27;;;;;;;;;;5013595;28;20212;-79
2022/10/16 02:01:38;;;;;;;7.47;4.30;;;;;;;;;;5013123;28;20709;-78
2022/10/16 02:04:10;;;;;;;6.07;4.37;;;;;;;;;;5013449;28;20670;-79
2022/10/16 02:06:38;;;;;;;5.30;3.97;;;;;;;;;;5011768;28;20300;-78
2022/10/16 02:09:07;;;;;;;6.47;4.50;;;;;;;;;;5030456;28;20295;-79
2022/10/16 02:11:35;;;;;;;6.77;4.33;;;;;;;;;;5016774;28;20247;-79
2022/10/16 02:14:05;;;;;;;7.40;4.70;;;;;;;;;;5013708;28;20232;-79
2022/10/16 02:16:34;;;;;;;7.70;4.97;;;;;;;;;;5012963;28;20282;-79
2022/10/16 02:19:05;;;;;;;9.07;5.17;;;;;;;;;;5012918;28;20307;-78
2022/10/16 02:21:38;;;;;;;8.27;5.70;;;;;;;;;;5013101;28;20196;-78
2022/10/16 02:24:10;;;;;;;8.53;5.57;;;;;;;;;;5013315;28;20225;-78
2022/10/16 02:26:41;;;;;;;6.20;5.20;;;;;;;;;;5014586;28;20224;-78
2022/10/16 02:29:11;;;;;;;7.83;5.20;;;;;;;;;;5002994;28;20239;-78
2022/10/16 02:31:42;;;;;;;6.57;5.50;;;;;;;;;;5007343;28;20562;-78
2022/10/16 02:34:13;;;;;;;6.23;4.70;;;;;;;;;;5016372;28;20212;-78
2022/10/16 02:36:42;;;;;;;7.23;5.23;;;;;;;;;;5016792;28;20212;-78
2022/10/16 02:39:11;;;;;;;6.90;5.23;;;;;;;;;;5016563;28;20278;-79
2022/10/16 02:41:40;;;;;;;8.67;4.73;;;;;;;;;;5017026;28;20239;-79
2022/10/16 02:44:08;;;;;;;7.70;5.13;;;;;;;;;;5016593;28;20307;-79
2022/10/16 02:46:37;;;;;;;7.27;5.27;;;;;;;;;;5016312;28;20259;-79
2022/10/16 02:49:05;;;;;;;8.67;4.73;;;;;;;;;;5016534;28;20213;-79
2022/10/16 02:51:35;;;;;;;5.97;4.70;;;;;;;;;;5017070;28;20641;-79
2022/10/16 02:54:04;;;;;;;5.60;4.70;;;;;;;;;;5016740;28;20243;-78
2022/10/16 02:56:33;;;;;;;5.30;4.77;;;;;;;;;;5008980;28;20198;-79
2022/10/16 02:59:01;;;;;;;7.40;4.90;;;;;;;;;;5010397;28;20243;-79
2022/10/16 03:01:29;;;;;;;5.87;5.00;;;;;;;;;;5015803;28;20212;-79
2022/10/16 03:03:58;;;;;;;6.57;5.10;;;;;;;;;;5016931;28;20200;-79
2022/10/16 03:06:26;;;;;;;6.43;5.27;;;;;;;;;;5016418;28;20311;-79
2022/10/16 03:08:56;;;;;;;5.43;4.87;;;;;;;;;;5016455;28;20240;-79
2022/10/16 03:11:26;;;;;;;7.10;5.40;;;;;;;;;;5002121;28;20221;-79
2022/10/16 03:13:54;;;;;;;6.60;5.47;;;;;;;;;;4998910;28;20288;-79
2022/10/16 03:16:22;;;;;;;7.77;5.53;;;;;;;;;;5016408;28;20235;-79
2022/10/16 03:18:51;;;;;;;9.27;5.77;;;;;;;;;;5032730;28;20299;-79
2022/10/16 03:21:19;;;;;;;10.47;5.03;;;;;;;;;;5016293;28;20255;-79
2022/10/16 03:23:48;;;;;;;9.93;5.77;;;;;;;;;;5016252;28;20243;-79
2022/10/16 03:26:18;;;;;;;6.20;5.00;;;;;;;;;;5015792;28;20319;-79
2022/10/16 03:28:46;;;;;;;9.77;5.70;;;;;;;;;;5002305;28;20240;-79
2022/10/16 03:31:15;;;;;;;7.03;5.50;;;;;;;;;;5011525;28;20208;-79
2022/10/16 03:33:43;;;;;;;6.90;6.20;;;;;;;;;;4996635;28;20249;-79
2022/10/16 03:36:12;;;;;;;9.90;5.80;;;;;;;;;;4996456;28;20229;-79
2022/10/16 03:38:40;;;;;;;7.67;5.70;;;;;;;;;;5014645;28;20298;-79
2022/10/16 03:41:09;;;;;;;9.87;6.60;;;;;;;;;;5016172;28;20420;-79
2022/10/16 03:43:39;;;;;;;7.63;5.90;;;;;;;;;;5010200;28;20619;-80
2022/10/16 03:46:07;;;;;;;9.37;6.20;;;;;;;;;;5016794;28;20224;-79
2022/10/16 03:48:35;;;;;;;8.60;6.60;;;;;;;;;;5015976;28;20642;-79
2022/10/16 03:51:04;;;;;;;6.77;6.00;;;;;;;;;;5015676;28;20228;-79
2022/10/16 03:53:32;;;;;;;7.63;5.90;;;;;;;;;;5015987;28;20295;-79
2022/10/16 03:56:01;;;;;;;8.03;5.50;;;;;;;;;;5014478;28;20232;-79
2022/10/16 03:58:29;;;;;;;8.50;5.63;;;;;;;;;;5015077;28;20292;-79
2022/10/16 04:00:59;;;;;;;8.23;5.30;;;;;;;;;;5015059;28;20282;-79
2022/10/16 04:03:28;;;;;;;6.97;5.30;;;;;;;;;;5015625;28;20220;-79
2022/10/16 04:05:56;;;;;;;8.90;5.07;;;;;;;;;;5015230;28;20299;-79
2022/10/16 04:08:25;;;;;;;9.90;5.37;;;;;;;;;;5015633;28;20251;-79
2022/10/16 04:10:53;;;;;;;6.57;5.03;;;;;;;;;;5007606;28;20312;-79
2022/10/16 04:13:22;;;;;;;8.40;5.53;;;;;;;;;;5015721;28;20287;-79
2022/10/16 04:15:50;;;;;;;6.77;5.80;;;;;;;;;;5015077;28;20631;-79
2022/10/16 04:18:20;;;;;;;7.73;5.30;;;;;;;;;;5015406;28;20649;-79
2022/10/16 04:20:48;;;;;;;8.40;5.40;;;;;;;;;;5015100;28;20281;-79
2022/10/16 04:23:17;;;;;;;7.33;5.30;;;;;;;;;;5015532;28;20380;-80
2022/10/16 04:25:45;;;;;;;7.30;5.33;;;;;;;;;;5015005;28;20225;-80
2022/10/16 04:28:14;;;;;;;5.90;5.10;;;;;;;;;;5014643;28;20260;-79
2022/10/16 04:30:42;;;;;;;7.30;5.60;;;;;;;;;;5011186;28;20237;-79
2022/10/16 04:33:12;;;;;;;7.80;5.07;;;;;;;;;;4995847;28;20745;-77
2022/10/16 04:35:42;;;;;;;7.80;5.27;;;;;;;;;;4995498;28;20263;-76
2022/10/16 04:38:11;;;;;;;8.10;5.40;;;;;;;;;;5007224;28;20258;-77
2022/10/16 04:40:39;;;;;;;6.90;5.13;;;;;;;;;;5015191;28;20635;-77
2022/10/16 04:43:08;;;;;;;10.23;5.67;;;;;;;;;;5014913;28;20283;-77
2022/10/16 04:45:36;;;;;;;8.13;5.43;;;;;;;;;;5014983;28;20221;-77
2022/10/16 04:48:05;;;;;;;5.47;4.97;;;;;;;;;;5014866;28;20274;-76
2022/10/16 04:50:33;;;;;;;9.80;5.93;;;;;;;;;;5013976;28;20696;-77
2022/10/16 04:53:03;;;;;;;7.13;5.77;;;;;;;;;;5014941;28;20251;-77
2022/10/16 04:55:31;;;;;;;8.40;5.40;;;;;;;;;;5014823;28;20260;-77
2022/10/16 04:58:00;;;;;;;6.67;5.43;;;;;;;;;;5014677;28;20224;-77
2022/10/16 05:00:28;;;;;;;5.93;5.10;;;;;;;;;;5014873;28;20258;-77
2022/10/16 05:02:59;;;;;;;6.03;5.37;;;;;;;;;;5014568;28;20247;-77
2022/10/16 05:05:43;;;;;;;11.27;4.97;;;;;;;;;;5014693;28;20208;-77
2022/10/16 05:08:13;;;;;;;6.93;4.83;;;;;;;;;;5014759;28;20582;-77
2022/10/16 05:10:43;;;;;;;6.67;4.97;;;;;;;;;;5014176;28;20263;-77
2022/10/16 05:13:11;;;;;;;5.20;4.70;;;;;;;;;;5014322;28;20247;-77
2022/10/16 05:15:40;;;;;;;6.23;4.63;;;;;;;;;;5014631;28;20204;-77
2022/10/16 05:18:08;;;;;;;7.33;4.57;;;;;;;;;;5013949;28;20263;-77
2022/10/16 05:20:36;;;;;;;4.87;4.37;;;;;;;;;;5014433;28;20649;-77
2022/10/16 05:23:05;;;;;;;6.70;5.27;;;;;;;;;;5013883;28;20300;-78
2022/10/16 05:25:35;;;;;;;5.97;4.63;;;;;;;;;;5014541;28;20565;-77
2022/10/16 05:28:04;;;;;;;7.07;4.50;;;;;;;;;;5014454;28;20224;-77
2022/10/16 05:30:32;;;;;;;5.80;4.93;;;;;;;;;;5014015;28;20279;-77
2022/10/16 05:33:01;;;;;;;5.43;4.80;;;;;;;;;;5014026;28;20255;-77
2022/10/16 05:35:29;;;;;;;4.83;4.33;;;;;;;;;;5014262;28;20611;-77
2022/10/16 05:37:57;;;;;;;7.43;4.70;;;;;;;;;;5013936;28;20266;-77
2022/10/16 05:40:26;;;;;;;6.67;4.97;;;;;;;;;;5034061;22;20334;-77
2022/10/16 05:42:58;;;;;;;5.23;4.67;;;;;;;;;;5033517;28;20581;-77
2022/10/16 05:45:26;;;;;;;7.83;4.93;;;;;;;;;;5033813;28;20188;-77
2022/10/16 05:47:55;;;;;;;5.53;5.03;;;;;;;;;;5030880;28;20223;-77
2022/10/16 05:50:24;;;;;;;6.23;4.97;;;;;;;;;;5053740;28;20227;-77
2022/10/16 05:52:53;;;;;;;6.60;5.10;;;;;;;;;;5033639;28;20203;-77
2022/10/16 05:55:22;;;;;;;8.43;5.60;;;;;;;;;;5033452;28;20295;-77
2022/10/16 05:57:51;;;;;;;6.63;5.40;;;;;;;;;;5030032;28;20197;-78
2022/10/16 06:00:21;;;;;;;5.07;4.53;;;;;;;;;;5023722;28;20680;-77
2022/10/16 06:02:50;;;;;;;6.00;4.40;;;;;;;;;;5052203;28;20222;-77
2022/10/16 06:05:19;;;;;;;5.10;4.63;;;;;;;;;;5053115;28;20203;-77
2022/10/16 06:07:48;;;;;;;4.23;3.80;;;;;;;;;;5035552;28;20310;-76
2022/10/16 06:10:16;;;;;;;3.47;3.13;;;;;;;;;;5033249;28;20232;-77
2022/10/16 06:12:45;;;;;;;4.07;3.17;;;;;;;;;;5033136;28;20216;-77
2022/10/16 06:15:14;;;;;;;4.80;3.20;;;;;;;;;;5033442;28;20257;-77
2022/10/16 06:17:44;;;;;;;5.33;3.23;;;;;;;;;;5033254;28;20654;-77
2022/10/16 06:20:15;;;;;;;3.10;2.80;;;;;;;;;;5033502;28;20227;-77
2022/10/16 06:22:44;;;;;;;2.97;2.47;;;;;;;;;;5033198;28;20208;-78
2022/10/16 06:25:13;;;;;;;3.30;2.40;;;;;;;;;;5033812;28;20211;-77
2022/10/16 06:27:42;;;;;;;3.20;2.57;;;;;;;;;;5037829;28;20311;-77
2022/10/16 06:30:11;;;;;;;3.17;2.37;;;;;;;;;;5039784;28;20689;-77
2022/10/16 06:32:40;;;;;;;3.87;2.40;;;;;;;;;;5032923;28;20350;-77
2022/10/16 06:42:32;;;;;;;4.90;2.40;;;;;;;;;;5057629;28;20253;-81
2022/10/16 07:13:12;;;;;;;2.80;1.30;;;;;;;;;;5056705;28;20209;-80
2022/10/16 07:15:46;;;;;;;3.23;1.50;;;;;;;;;;5055394;28;20196;-81
2022/10/16 07:31:48;;;;;;;2.53;1.43;;;;;;;;;;4974369;28;20193;-81
2022/10/16 07:34:22;;;;;;;1.90;1.27;;;;;;;;;;4960717;28;20203;-81
2022/10/16 07:37:07;;;;;;;2.07;1.30;;;;;;;;;;4983573;28;20197;-81
2022/10/16 07:39:48;;;;;;;2.03;1.20;;;;;;;;;;5021495;28;20208;-81
2022/10/16 07:42:20;;;;;;;6.00;1.47;;;;;;;;;;5031836;28;20248;-81
2022/10/16 07:44:55;;;;;;;1.63;1.30;;;;;;;;;;5033492;28;20196;-81
2022/10/16 07:47:25;;;;;;;2.27;1.20;;;;;;;;;;5043072;28;20214;-81
2022/10/16 07:52:51;;;;;;;1.67;1.13;;;;;;;;;;5055035;28;20234;-81
2022/10/16 07:58:38;;;;;;;2.57;1.20;;;;;;;;;;5057156;28;20207;-79
2022/10/16 08:01:09;;;;;;;0.97;0.90;;;;;;;;;;5052094;28;20223;-81
2022/10/16 08:03:39;;;;;;;1.33;1.10;;;;;;;;;;5052232;28;20199;-81
2022/10/16 08:06:08;;;;;;;4.07;1.17;;;;;;;;;;5050427;28;20231;-81
2022/10/16 08:08:36;;;;;;;3.20;1.30;;;;;;;;;;5049125;28;20220;-81
2022/10/16 08:11:05;;;;;;;1.77;1.07;;;;;;;;;;5042364;28;20257;-80
2022/10/16 08:13:34;;;;;;;2.22;1.30;;;;;;;;;;5050855;28;20551;-81
2022/10/16 08:16:07;;;;;;;2.50;1.20;;;;;;;;;;5055395;28;20215;-81
2022/10/16 08:18:36;;;;;;;1.30;1.20;;;;;;;;;;5054299;28;20598;-81
2022/10/16 08:21:07;;;;;;;2.30;1.40;;;;;;;;;;5056271;28;20204;-81
2022/10/16 08:23:36;;;;;;;1.63;1.30;;;;;;;;;;5059532;28;20191;-80
2022/10/16 08:26:05;;;;;;;3.47;1.20;;;;;;;;;;5060388;28;20188;-81
2022/10/16 08:28:34;;;;;;;1.43;1.33;;;;;;;;;;5059951;28;20215;-81
2022/10/16 08:31:10;;;;;;;2.75;1.38;;;;;;;;;;5058599;28;20227;-81
2022/10/16 08:33:39;;;;;;;1.30;1.20;;;;;;;;;;5059489;28;20200;-81
2022/10/16 08:36:10;;;;;;;3.05;1.70;;;;;;;;;;5055012;28;20188;-80
2022/10/16 08:38:39;;;;;;;1.87;1.20;;;;;;;;;;5053594;28;20199;-80
2022/10/16 08:41:26;;;;;;;2.80;1.40;;;;;;;;;;5055801;28;20246;-81
2022/10/16 08:44:05;;;;;;;1.98;1.40;;;;;;;;;;5047955;28;20210;-81
2022/10/16 08:46:43;;;;;;;2.33;1.52;;;;;;;;;;5054990;28;20168;-81
2022/10/16 08:49:18;;;;;;;2.55;1.30;;;;;;;;;;5054068;28;20219;-81
2022/10/16 08:51:50;;;;;;;4.72;1.30;;;;;;;;;;5056443;28;20207;-81
2022/10/16 08:54:30;;;;;;;1.92;1.23;;;;;;;;;;5058899;28;20187;-81
2022/10/16 08:57:02;;;;;;;1.75;1.23;;;;;;;;;;5058683;28;20188;-80
2022/10/16 08:59:30;;;;;;;2.55;1.70;;;;;;;;;;5058180;28;20210;-82
2022/10/16 09:02:01;;;;;;;2.20;1.40;;;;;;;;;;5057230;28;20172;-81
2022/10/16 09:04:47;;;;;;;1.55;1.40;;;;;;;;;;5055597;28;20184;-80
2022/10/16 09:07:26;;;;;;;2.42;1.30;;;;;;;;;;5054761;28;20215;-81
2022/10/16 09:10:01;;;;;;;2.63;1.40;;;;;;;;;;5056789;28;20239;-81
2022/10/16 09:12:34;;;;;;;2.03;1.30;;;;;;;;;;5054948;28;20180;-81
2022/10/16 09:15:06;;;;;;;3.75;1.65;;;;;;;;;;5056271;28;20199;-81
2022/10/16 09:17:40;;;;;;;3.08;1.55;;;;;;;;;;5053653;28;20215;-82
2022/10/16 09:20:19;;;;;;;2.05;1.30;;;;;;;;;;5052446;28;20310;-81
2022/10/16 09:22:50;;;;;;;1.33;1.23;;;;;;;;;;5053349;28;20207;-81
2022/10/16 09:25:21;;;;;;;1.83;1.30;;;;;;;;;;5056624;28;20252;-81
2022/10/16 09:27:50;;;;;;;3.55;1.30;;;;;;;;;;5056305;28;20223;-81
2022/10/16 09:30:20;;;;;;;1.42;1.25;;;;;;;;;;5055632;28;20228;-81
2022/10/16 09:32:49;;;;;;;1.17;1.08;;;;;;;;;;5058359;28;20187;-81
2022/10/16 09:35:19;;;;;;;2.28;1.45;;;;;;;;;;5056620;28;20184;-81
2022/10/16 09:37:49;;;;;;;2.42;1.33;;;;;;;;;;5055431;28;20187;-81
2022/10/16 09:40:28;;;;;;;1.42;1.30;;;;;;;;;;5055566;28;20223;-81
2022/10/16 09:42:59;;;;;;;2.10;1.40;;;;;;;;;;5056709;28;20188;-81
2022/10/16 09:45:27;;;;;;;4.32;1.70;;;;;;;;;;5055068;28;20181;-81
2022/10/16 09:47:56;;;;;;;4.05;1.58;;;;;;;;;;5050388;28;20206;-81
2022/10/16 09:50:26;;;;;;;2.20;1.30;;;;;;;;;;5053290;28;20227;-81
2022/10/16 09:53:05;;;;;;;1.50;1.40;;;;;;;;;;5053949;28;20188;-82
2022/10/16 09:55:35;;;;;;;4.20;1.58;;;;;;;;;;5057815;28;20210;-79
2022/10/16 09:58:04;;;;;;;4.03;1.60;;;;;;;;;;5053771;28;20188;-81
2022/10/16 10:00:32;;;;;;;3.90;1.60;;;;;;;;;;5051693;28;20223;-81
2022/10/16 10:03:01;;;;;;;2.70;1.80;;;;;;;;;;5053739;28;20203;-81
2022/10/16 10:05:30;;;;;;;2.35;1.67;;;;;;;;;;5054726;28;20196;-80
2022/10/16 10:08:00;;;;;;;2.95;1.40;;;;;;;;;;5053343;28;20168;-81
2022/10/16 10:10:29;;;;;;;2.80;1.60;;;;;;;;;;5048765;28;20228;-80
2022/10/16 10:12:59;;;;;;;2.97;1.70;;;;;;;;;;5053670;28;20184;-81
2022/10/16 10:15:29;;;;;;;1.40;1.30;;;;;;;;;;5056724;28;20207;-81
2022/10/16 10:17:59;;;;;;;2.45;1.20;;;;;;;;;;5054910;28;20168;-81
2022/10/16 10:20:29;;;;;;;2.15;1.40;;;;;;;;;;5051207;28;20224;-81
2022/10/16 10:22:57;;;;;;;3.65;1.52;;;;;;;;;;5055480;28;20195;-81
2022/10/16 10:25:34;;;;;;;3.40;1.40;;;;;;;;;;5053979;28;20231;-81
2022/10/16 10:28:10;;;;;;;2.83;1.50;;;;;;;;;;5051130;28;20188;-81
2022/10/16 10:30:43;;;;;;;3.55;1.50;;;;;;;;;;5054217;28;20231;-81
2022/10/16 10:33:16;;;;;;;2.10;1.42;;;;;;;;;;5053772;28;20199;-81
2022/10/16 10:35:46;;;;;;;2.28;1.27;;;;;;;;;;5047514;28;20554;-80
2022/10/16 10:38:22;;;;;;;1.95;1.20;;;;;;;;;;5051349;28;20196;-81
2022/10/16 10:40:52;;;;;;;3.03;1.50;;;;;;;;;;5051860;28;20290;-81
2022/10/16 10:43:30;;;;;;;3.72;1.30;;;;;;;;;;5048711;28;20243;-80
2022/10/16 10:46:01;;;;;;;1.50;1.23;;;;;;;;;;5052346;28;20247;-78
2022/10/16 10:48:41;;;;;;;1.58;1.25;;;;;;;;;;5056219;28;20184;-80
2022/10/16 10:51:13;;;;;;;2.03;1.10;;;;;;;;;;5046699;28;20231;-81
2022/10/16 10:53:46;;;;;;;2.42;0.95;;;;;;;;;;5050125;28;20183;-80
2022/10/16 10:56:21;;;;;;;4.22;1.30;;;;;;;;;;5040755;28;20211;-80
2022/10/16 10:59:11;;;;;;;1.80;1.38;;;;;;;;;;5032751;28;20172;-79
2022/10/16 11:01:46;;;;;;;4.60;1.40;;;;;;;;;;5028008;28;20688;-80
2022/10/16 11:04:31;;;;;;;2.22;1.20;;;;;;;;;;5031010;28;20220;-80
2022/10/16 11:07:02;;;;;;;2.97;1.30;;;;;;;;;;5032511;28;20633;-80
2022/10/16 11:09:34;;;;;;;3.63;1.40;;;;;;;;;;5029231;28;20235;-80
2022/10/16 11:12:04;;;;;;;3.17;1.30;;;;;;;;;;5030381;28;20208;-81
2022/10/16 11:14:36;;;;;;;3.17;1.33;;;;;;;;;;5030555;28;20188;-81
2022/10/16 11:17:10;;;;;;;4.15;1.33;;;;;;;;;;5033709;28;20219;-81
2022/10/16 11:19:41;;;;;;;1.75;1.15;;;;;;;;;;5032274;28;20223;-80
2022/10/16 11:22:14;;;;;;;3.03;1.20;;;;;;;;;;5030081;28;20247;-81
2022/10/16 11:24:44;;;;;;;3.50;1.20;;;;;;;;;;5028104;28;20231;-81
2022/10/16 11:27:16;;;;;;;4.20;1.60;;;;;;;;;;5030061;28;20184;-81
2022/10/16 11:29:48;;;;;;;3.30;1.33;;;;;;;;;;5028910;28;20227;-81
2022/10/16 11:32:21;;;;;;;2.67;1.40;;;;;;;;;;5030138;28;20263;-81
2022/10/16 11:34:52;;;;;;;3.47;1.38;;;;;;;;;;5032849;28;20185;-81
2022/10/16 11:37:23;;;;;;;2.00;1.40;;;;;;;;;;5046333;28;20183;-78
2022/10/16 11:39:54;;;;;;;2.50;1.40;;;;;;;;;;5053852;28;20228;-81
2022/10/16 11:42:24;;;;;;;3.78;1.63;;;;;;;;;;5053266;28;20207;-81
2022/10/16 11:44:56;;;;;;;3.50;1.48;;;;;;;;;;5052342;28;20165;-79
2022/10/16 11:47:29;;;;;;;2.13;1.60;;;;;;;;;;5053971;28;20191;-81
2022/10/16 11:50:22;;;;;;;2.38;1.38;;;;;;;;;;5052970;28;20693;-81
2022/10/16 11:52:55;;;;;;;4.07;1.33;;;;;;;;;;5050751;28;20211;-81
2022/10/16 11:55:26;;;;;;;2.42;1.40;;;;;;;;;;5053931;28;20199;-81
2022/10/16 11:57:56;;;;;;;3.03;1.30;;;;;;;;;;5042723;28;20192;-81
2022/10/16 12:00:26;;;;;;;3.45;1.40;;;;;;;;;;5033739;28;20228;-81
2022/10/16 12:03:00;;;;;;;3.05;1.60;;;;;;;;;;5054286;28;20208;-81
2022/10/16 12:05:33;;;;;;;3.17;1.20;;;;;;;;;;5056954;28;20218;-81
2022/10/16 12:08:06;;;;;;;2.80;1.40;;;;;;;;;;5053785;28;20238;-81
2022/10/16 12:10:36;;;;;;;3.25;1.30;;;;;;;;;;5055426;28;20224;-81
2022/10/16 12:13:06;;;;;;;2.40;1.20;;;;;;;;;;5055298;28;20195;-81
2022/10/16 12:15:35;;;;;;;2.35;1.20;;;;;;;;;;5052256;28;20214;-81
2022/10/16 12:18:26;;;;;;;2.28;1.20;;;;;;;;;;5048002;28;20290;-81
2022/10/16 12:21:00;;;;;;;2.20;1.17;;;;;;;;;;5054383;28;20219;-81
2022/10/16 12:23:29;;;;;;;2.67;1.30;;;;;;;;;;5053601;28;20187;-81
2022/10/16 12:25:59;;;;;;;2.65;1.40;;;;;;;;;;5053346;28;20180;-81
2022/10/16 12:28:28;;;;;;;2.55;1.30;;;;;;;;;;5054883;28;20596;-81
2022/10/16 12:30:58;;;;;;;2.28;1.30;;;;;;;;;;5051330;28;20231;-81
2022/10/16 12:33:28;;;;;;;2.45;1.30;;;;;;;;;;5051308;28;20204;-81
2022/10/16 12:35:58;;;;;;;2.50;1.20;;;;;;;;;;5049316;28;20192;-81
2022/10/16 12:38:28;;;;;;;1.42;1.10;;;;;;;;;;5045711;28;20207;-81
2022/10/16 12:40:58;;;;;;;2.30;1.50;;;;;;;;;;5046030;28;20719;-81
2022/10/16 12:43:29;;;;;;;1.48;1.20;;;;;;;;;;5047799;28;20192;-81
2022/10/16 12:46:03;;;;;;;1.83;1.00;;;;;;;;;;5051670;28;20263;-80
2022/10/16 12:48:33;;;;;;;3.00;1.08;;;;;;;;;;5046111;28;20258;-80
2022/10/16 12:51:24;;;;;;;3.17;1.25;;;;;;;;;;5048706;28;20208;-81
2022/10/16 12:54:03;;;;;;;2.75;1.15;;;;;;;;;;5043151;28;20191;-81
2022/10/16 12:56:39;;;;;;;2.47;1.08;;;;;;;;;;5046570;28;20184;-81
2022/10/16 12:59:11;;;;;;;3.38;1.23;;;;;;;;;;5047420;28;20187;-81
2022/10/16 13:01:44;;;;;;;2.38;1.20;;;;;;;;;;5045415;28;20188;-81
2022/10/16 13:04:31;;;;;;;1.60;1.15;;;;;;;;;;5051161;28;20195;-81
2022/10/16 13:07:04;;;;;;;1.83;1.08;;;;;;;;;;5050484;28;20188;-81
2022/10/16 13:09:41;;;;;;;1.52;0.98;;;;;;;;;;5050271;28;20242;-81
2022/10/16 13:12:30;;;;;;;1.75;1.02;;;;;;;;;;5048148;28;20258;-81
2022/10/16 13:15:10;;;;;;;2.65;1.20;;;;;;;;;;5043012;28;20199;-81
2022/10/16 13:17:43;;;;;;;4.43;1.25;;;;;;;;;;5047640;28;20183;-81
2022/10/16 13:20:19;;;;;;;3.10;1.33;;;;;;;;;;5051336;28;20218;-81
2022/10/16 13:22:53;;;;;;;2.08;1.20;;;;;;;;;;5050289;28;20172;-81
2022/10/16 13:25:29;;;;;;;1.23;1.00;;;;;;;;;;5046519;28;20251;-81
2022/10/16 13:28:05;;;;;;;2.35;1.13;;;;;;;;;;5052352;28;20188;-79
2022/10/16 13:30:37;;;;;;;2.95;1.10;;;;;;;;;;5052991;28;20233;-81
2022/10/16 13:33:08;;;;;;;1.50;1.20;;;;;;;;;;5053348;28;20168;-77
2022/10/16 13:35:38;;;;;;;3.70;1.42;;;;;;;;;;5054648;28;20168;-80
2022/10/16 13:38:14;;;;;;;3.92;1.60;;;;;;;;;;5043849;28;20211;-80
2022/10/16 13:40:50;;;;;;;2.58;1.35;;;;;;;;;;5035406;28;20211;-81
2022/10/16 13:43:19;;;;;;;2.13;1.35;;;;;;;;;;5034963;28;20241;-81
2022/10/16 13:45:54;;;;;;;2.83;1.45;;;;;;;;;;5049351;28;20207;-79
2022/10/16 13:48:23;;;;;;;2.20;1.20;;;;;;;;;;5047195;28;20195;-80
2022/10/16 13:51:03;;;;;;;5.30;1.70;;;;;;;;;;5043835;28;20235;-81
2022/10/16 13:53:32;;;;;;;2.08;1.20;;;;;;;;;;5050565;28;20232;-80
2022/10/16 13:56:04;;;;;;;2.63;1.20;;;;;;;;;;5050768;28;20265;-80
2022/10/16 13:58:34;;;;;;;2.53;1.42;;;;;;;;;;5039686;28;20238;-81
2022/10/16 14:01:05;;;;;;;3.60;1.50;;;;;;;;;;5050333;28;20250;-76
2022/10/16 14:03:35;;;;;;;2.17;1.27;;;;;;;;;;5047418;28;20633;-81
2022/10/16 14:06:09;;;;;;;1.60;1.20;;;;;;;;;;5048831;28;20188;-79
2022/10/16 14:08:38;;;;;;;2.97;1.38;;;;;;;;;;5045849;28;20724;-80
2022/10/16 14:11:06;;;;;;;1.40;1.30;;;;;;;;;;5044372;28;20215;-80
2022/10/16 14:13:38;;;;;;;3.28;1.42;;;;;;;;;;5046134;28;20204;-80
2022/10/16 14:16:09;;;;;;;2.33;1.13;;;;;;;;;;5041209;28;20296;-81
2022/10/16 14:18:38;;;;;;;1.58;1.00;;;;;;;;;;5046321;28;20176;-81
2022/10/16 14:21:13;;;;;;;3.70;1.27;;;;;;;;;;5046339;28;20230;-78
2022/10/16 14:23:43;;;;;;;1.90;0.95;;;;;;;;;;5053367;28;20190;-79
2022/10/16 14:26:15;;;;;;;2.90;1.00;;;;;;;;;;5052823;28;20195;-81
2022/10/16 14:28:44;;;;;;;2.75;1.42;;;;;;;;;;5053592;28;20207;-81
2022/10/16 14:31:28;;;;;;;2.03;0.98;;;;;;;;;;5053554;28;20220;-80
2022/10/16 14:33:56;;;;;;;1.50;1.25;;;;;;;;;;5058027;28;20564;-81
2022/10/16 14:36:27;;;;;;;1.10;1.00;;;;;;;;;;5058759;28;20202;-81
2022/10/16 14:39:01;;;;;;;3.47;1.00;;;;;;;;;;5054827;28;20199;-81
2022/10/16 14:41:31;;;;;;;1.63;1.10;;;;;;;;;;5049140;28;20188;-81
2022/10/16 14:44:03;;;;;;;2.83;1.30;;;;;;;;;;5051730;28;20209;-80
2022/10/16 14:46:33;;;;;;;1.70;0.95;;;;;;;;;;5050139;28;20180;-80
2022/10/16 14:49:04;;;;;;;2.30;1.08;;;;;;;;;;5050271;28;20187;-80
2022/10/16 14:51:34;;;;;;;3.78;1.10;;;;;;;;;;5057048;28;20196;-80
2022/10/16 14:54:02;;;;;;;2.17;1.20;;;;;;;;;;5053582;28;20211;-81
2022/10/16 14:56:32;;;;;;;2.47;1.02;;;;;;;;;;5054271;28;20203;-80
2022/10/16 14:59:01;;;;;;;1.88;1.00;;;;;;;;;;5053558;28;20195;-81
2022/10/16 15:01:34;;;;;;;2.47;1.20;;;;;;;;;;5053328;28;20214;-80
2022/10/16 15:04:03;;;;;;;2.25;1.20;;;;;;;;;;5051990;28;20199;-81
2022/10/16 15:06:33;;;;;;;1.90;1.10;;;;;;;;;;5054914;28;20213;-78
2022/10/16 15:09:02;;;;;;;1.33;1.00;;;;;;;;;;5053690;28;20196;-81
2022/10/16 15:11:33;;;;;;;2.63;1.00;;;;;;;;;;5053383;28;20207;-81
2022/10/16 15:14:01;;;;;;;2.15;1.20;;;;;;;;;;5057271;28;20171;-79
2022/10/16 15:16:31;;;;;;;4.65;1.13;;;;;;;;;;5049465;28;20591;-81
2022/10/16 15:19:00;;;;;;;2.38;1.00;;;;;;;;;;5047667;28;20573;-81
2022/10/16 15:21:30;;;;;;;1.60;0.95;;;;;;;;;;5049382;28;20207;-81
2022/10/16 15:24:01;;;;;;;2.83;1.10;;;;;;;;;;5045886;28;20188;-81
2022/10/16 15:26:30;;;;;;;3.72;1.17;;;;;;;;;;5044339;28;20192;-80
2022/10/16 15:29:13;;;;;;;1.60;1.00;;;;;;;;;;5043198;28;20712;-81
2022/10/16 15:31:42;;;;;;;3.60;1.00;;;;;;;;;;5053406;28;20212;-80
2022/10/16 15:34:12;;;;;;;2.85;1.10;;;;;;;;;;5053835;28;20195;-81
2022/10/16 15:36:42;;;;;;;2.47;1.00;;;;;;;;;;5050742;28;20209;-79
2022/10/16 15:39:14;;;;;;;2.10;1.08;;;;;;;;;;5051992;28;20188;-81
2022/10/16 15:41:43;;;;;;;2.35;1.10;;;;;;;;;;5053943;28;20192;-81
2022/10/16 15:44:11;;;;;;;3.00;1.20;;;;;;;;;;5058655;28;20180;-78
2022/10/16 15:46:40;;;;;;;1.38;1.00;;;;;;;;;;5033078;28;20299;-78
2022/10/16 15:49:10;;;;;;;1.63;1.20;;;;;;;;;;5032062;28;20630;-78
2022/10/16 15:51:39;;;;;;;1.45;1.15;;;;;;;;;;5033729;28;20262;-78
2022/10/16 15:54:08;;;;;;;2.53;1.20;;;;;;;;;;5032525;28;20216;-78
2022/10/16 15:56:38;;;;;;;4.30;1.45;;;;;;;;;;5032106;28;20231;-78
2022/10/16 15:59:06;;;;;;;1.65;1.20;;;;;;;;;;5026137;28;20212;-78
2022/10/16 16:01:35;;;;;;;2.88;1.30;;;;;;;;;;5031285;28;20645;-79